createdAt,value
2019-01-19T00:01:31.032Z,0.24
2019-01-19T00:04:38.616Z,0.27
2019-01-19T00:07:33.143Z,0.16
2019-01-19T00:10:36.844Z,0.20
2019-01-19T00:13:48.086Z,0.08
2019-01-19T00:16:39.626Z,0.23
2019-01-19T00:19:46.634Z,0.25
2019-01-19T00:22:27.828Z,0.19
2019-01-19T00:25:11.224Z,-0.16
2019-01-19T00:27:48.066Z,-0.64
2019-01-19T00:30:49.874Z,-0.54
2019-01-19T00:33:58.147Z,-0.11
2019-01-19T00:36:41.825Z,0.09
2019-01-19T00:39:17.440Z,0.19
2019-01-19T00:42:22.052Z,0.19
2019-01-19T00:45:17.363Z,0.16
2019-01-19T00:48:29.659Z,0.22
2019-01-19T00:51:39.708Z,0.22
2019-01-19T00:54:42.813Z,0.28
2019-01-19T00:57:55.518Z,0.30
2019-01-19T01:00:39.878Z,0.38
2019-01-19T01:03:48.146Z,0.42
2019-01-19T01:06:51.381Z,0.40
2019-01-19T01:09:45.925Z,0.38
2019-01-19T01:12:32.275Z,0.32
2019-01-19T01:15:56.563Z,0.27
2019-01-19T01:19:07.519Z,0.28
2019-01-19T01:22:21.319Z,0.30
2019-01-19T01:25:31.378Z,0.23
2019-01-19T01:28:45.393Z,0.20
2019-01-19T01:31:47.643Z,0.15
2019-01-19T01:34:28.287Z,0.12
2019-01-19T01:37:39.467Z,0.15
2019-01-19T01:40:59.821Z,0.15
2019-01-19T01:44:18.345Z,0.17
2019-01-19T01:47:27.869Z,0.21
2019-01-19T01:50:21.381Z,0.21
2019-01-19T01:53:28.300Z,0.26
2019-01-19T01:56:01.624Z,0.26
2019-01-19T01:59:14.707Z,0.14
2019-01-19T02:01:58.571Z,0.14
2019-01-19T02:04:56.463Z,0.16
2019-01-19T02:08:16.627Z,0.13
2019-01-19T02:11:33.292Z,0.06
2019-01-19T02:14:25.584Z,0.13
2019-01-19T02:17:41.733Z,0.13
2019-01-19T02:21:05.301Z,0.12
2019-01-19T02:24:08.312Z,0.05
2019-01-19T02:27:15.047Z,0.14
2019-01-19T02:30:35.415Z,0.16
2019-01-19T02:33:36.573Z,0.08
2019-01-19T02:36:39.649Z,0.05
2019-01-19T02:39:53.848Z,0.05
2019-01-19T02:43:04.486Z,0.04
2019-01-19T02:46:20.266Z,0.05
2019-01-19T02:49:34.877Z,-0.05
2019-01-19T02:52:43.192Z,-0.13
2019-01-19T02:55:53.926Z,-0.09
2019-01-19T02:59:17.217Z,-0.07
2019-01-19T03:02:21.738Z,-0.08
2019-01-19T03:05:18.189Z,-0.06
2019-01-19T03:08:03.005Z,-0.09
2019-01-19T03:11:10.230Z,-0.01
2019-01-19T03:14:27.746Z,-0.13
2019-01-19T03:17:40.402Z,-0.16
2019-01-19T03:20:48.755Z,-0.15
2019-01-19T03:23:53.816Z,-0.16
2019-01-19T03:26:48.512Z,-0.14
2019-01-19T03:29:51.768Z,-0.16
2019-01-19T03:32:43.852Z,-0.12
2019-01-19T03:36:04.588Z,-0.13
2019-01-19T03:39:02.151Z,-0.15
2019-01-19T03:42:11.863Z,-0.21
2019-01-19T03:45:07.409Z,-0.15
2019-01-19T03:48:08.720Z,-0.13
2019-01-19T03:51:14.300Z,-0.14
2019-01-19T03:54:40.331Z,-0.15
2019-01-19T03:57:20.237Z,-0.16
2019-01-19T04:00:28.865Z,-0.24
2019-01-19T04:03:37.114Z,-0.28
2019-01-19T04:06:48.169Z,-0.35
2019-01-19T04:09:44.867Z,-0.34
2019-01-19T04:13:14.037Z,-0.32
2019-01-19T04:16:03.422Z,-0.35
2019-01-19T04:19:08.480Z,-0.39
2019-01-19T04:22:03.809Z,-0.36
2019-01-19T04:25:35.907Z,-0.35
2019-01-19T04:28:06.165Z,-0.32
2019-01-19T04:30:36.008Z,-0.34
2019-01-19T04:33:05.936Z,-0.33
2019-01-19T04:35:35.851Z,-0.32
2019-01-19T04:38:08.550Z,-0.27
2019-01-19T04:40:38.298Z,-0.23
2019-01-19T04:43:08.157Z,-0.33
2019-01-19T04:45:38.048Z,-0.34
2019-01-19T04:48:07.876Z,-0.30
2019-01-19T04:50:37.698Z,-0.29
2019-01-19T04:53:07.580Z,-0.25
2019-01-19T04:55:37.519Z,-0.24
2019-01-19T04:58:07.473Z,-0.22
2019-01-19T05:00:37.357Z,-0.26
2019-01-19T05:03:07.325Z,-0.28
2019-01-19T05:05:37.344Z,-0.29
2019-01-19T05:08:07.189Z,-0.35
2019-01-19T05:10:37.125Z,-0.35
2019-01-19T05:13:07.093Z,-0.31
2019-01-19T05:15:37.059Z,-0.28
2019-01-19T05:18:06.922Z,-0.26
2019-01-19T05:20:36.877Z,-0.24
2019-01-19T05:23:06.792Z,-0.25
2019-01-19T05:25:36.688Z,-0.38
2019-01-19T05:28:06.642Z,-0.32
2019-01-19T05:30:36.526Z,-0.32
2019-01-19T05:33:06.558Z,-0.38
2019-01-19T05:35:36.389Z,-0.44
2019-01-19T05:38:06.168Z,-0.59
2019-01-19T05:40:36.023Z,-0.58
2019-01-19T05:43:05.943Z,-0.57
2019-01-19T05:45:35.829Z,-0.59
2019-01-19T05:48:05.717Z,-0.61
2019-01-19T05:50:35.557Z,-0.59
2019-01-19T05:53:07.154Z,-0.57
2019-01-19T05:55:37.069Z,-0.71
2019-01-19T05:58:06.993Z,-0.75
2019-01-19T06:00:36.934Z,-0.70
2019-01-19T06:03:07.047Z,-0.71
2019-01-19T06:05:41.075Z,-0.68
2019-01-19T06:08:14.021Z,-0.67
2019-01-19T06:10:44.062Z,-0.62
2019-01-19T06:13:13.914Z,-0.64
2019-01-19T06:15:43.892Z,-0.67
2019-01-19T06:18:13.704Z,-0.62
2019-01-19T06:20:43.502Z,-0.60
2019-01-19T06:23:19.314Z,-0.65
2019-01-19T06:25:49.454Z,-0.77
2019-01-19T06:28:19.290Z,-0.71
2019-01-19T06:30:50.548Z,-0.69
2019-01-19T06:33:20.507Z,-0.71
2019-01-19T06:35:50.557Z,-0.74
2019-01-19T06:38:20.469Z,-0.79
2019-01-19T06:40:50.532Z,-0.79
2019-01-19T06:43:25.462Z,-0.72
2019-01-19T06:46:00.396Z,-0.72
2019-01-19T06:48:30.595Z,-0.70
2019-01-19T06:51:04.264Z,-0.74
2019-01-19T06:53:34.197Z,-0.72
2019-01-19T06:56:03.946Z,-0.78
2019-01-19T06:58:33.864Z,-0.72
2019-01-19T07:01:06.124Z,-0.79
2019-01-19T07:03:38.022Z,-0.77
2019-01-19T07:06:07.868Z,-0.76
2019-01-19T07:08:37.759Z,-0.77
2019-01-19T07:11:09.302Z,-0.76
2019-01-19T07:13:39.182Z,-0.69
2019-01-19T07:16:15.177Z,-0.66
2019-01-19T07:18:45.057Z,-0.68
2019-01-19T07:21:16.600Z,-0.69
2019-01-19T07:23:48.809Z,-0.76
2019-01-19T07:26:18.731Z,-0.77
2019-01-19T07:28:48.640Z,-0.81
2019-01-19T07:31:18.576Z,-0.75
2019-01-19T07:33:48.454Z,-0.70
2019-01-19T07:36:18.315Z,-0.80
2019-01-19T07:38:48.221Z,-0.68
2019-01-19T07:41:18.157Z,-0.64
2019-01-19T07:43:51.343Z,-0.66
2019-01-19T07:46:23.337Z,-0.67
2019-01-19T07:48:54.915Z,-0.54
2019-01-19T07:51:25.732Z,-0.54
2019-01-19T07:53:55.805Z,-0.41
2019-01-19T07:56:25.627Z,-0.36
2019-01-19T07:58:57.380Z,-0.35
2019-01-19T08:01:27.215Z,-0.29
2019-01-19T08:03:58.117Z,-0.36
2019-01-19T08:06:28.065Z,-0.22
2019-01-19T08:08:57.818Z,-0.19
2019-01-19T08:11:27.733Z,-0.24
2019-01-19T08:13:58.656Z,-0.12
2019-01-19T08:16:31.983Z,-0.03
2019-01-19T08:19:02.153Z,0.12
2019-01-19T08:21:32.042Z,0.09
2019-01-19T08:24:04.665Z,0.16
2019-01-19T08:26:34.546Z,0.24
2019-01-19T08:29:07.801Z,0.34
2019-01-19T08:31:37.754Z,0.46
2019-01-19T08:34:12.021Z,0.54
2019-01-19T08:36:42.660Z,0.68
2019-01-19T08:39:12.745Z,0.71
2019-01-19T08:41:42.863Z,0.71
2019-01-19T08:44:12.775Z,0.81
2019-01-19T08:46:42.747Z,0.82
2019-01-19T08:49:14.497Z,0.97
2019-01-19T08:51:45.347Z,1.04
2019-01-19T08:54:15.393Z,1.21
2019-01-19T08:56:45.378Z,1.19
2019-01-19T08:59:18.342Z,1.29
2019-01-19T09:01:48.840Z,1.43
2019-01-19T09:04:22.247Z,1.49
2019-01-19T09:06:52.597Z,1.45
2019-01-19T09:09:28.780Z,1.46
2019-01-19T09:11:59.321Z,1.51
2019-01-19T09:14:30.789Z,1.63
2019-01-19T09:17:01.100Z,1.67
2019-01-19T09:19:30.997Z,1.64
2019-01-19T09:22:01.861Z,1.71
2019-01-19T09:24:32.984Z,1.76
2019-01-19T09:27:02.913Z,1.77
2019-01-19T09:29:35.019Z,1.83
2019-01-19T09:32:04.842Z,1.92
2019-01-19T09:34:34.717Z,2.00
2019-01-19T09:37:07.995Z,2.00
2019-01-19T09:39:37.908Z,2.07
2019-01-19T09:42:08.417Z,2.19
2019-01-19T09:44:38.370Z,2.23
2019-01-19T09:47:08.267Z,2.32
2019-01-19T09:49:39.565Z,2.50
2019-01-19T09:52:11.079Z,2.89
2019-01-19T09:54:42.408Z,3.28
2019-01-19T09:57:12.185Z,2.94
2019-01-19T09:59:44.913Z,2.17
2019-01-19T10:02:14.844Z,1.81
2019-01-19T10:04:44.781Z,1.99
2019-01-19T10:07:14.615Z,1.68
2019-01-19T10:09:44.552Z,1.76
2019-01-19T10:12:14.529Z,2.23
2019-01-19T10:14:47.734Z,2.58
2019-01-19T10:17:22.182Z,2.70
2019-01-19T10:19:53.273Z,2.74
2019-01-19T10:22:24.163Z,2.75
2019-01-19T10:24:56.418Z,2.85
2019-01-19T10:27:26.140Z,2.91
2019-01-19T10:29:56.048Z,2.92
2019-01-19T10:32:26.062Z,3.01
2019-01-19T10:35:01.398Z,3.13
2019-01-19T10:37:31.209Z,3.16
2019-01-19T10:40:01.152Z,3.25
2019-01-19T10:42:33.289Z,3.24
2019-01-19T10:45:03.131Z,3.27
2019-01-19T10:47:33.359Z,3.20
2019-01-19T10:50:03.355Z,3.28
2019-01-19T10:52:34.373Z,3.27
2019-01-19T10:55:10.152Z,3.38
2019-01-19T10:57:40.211Z,3.49
2019-01-19T11:00:21.776Z,3.54
2019-01-19T11:02:51.703Z,3.55
2019-01-19T11:05:24.533Z,3.48
2019-01-19T11:07:54.494Z,3.56
2019-01-19T11:10:27.825Z,3.52
2019-01-19T11:12:57.764Z,3.48
2019-01-19T11:15:30.635Z,3.66
2019-01-19T11:18:01.031Z,3.79
2019-01-19T11:20:30.943Z,3.73
2019-01-19T11:23:01.112Z,3.70
2019-01-19T11:25:31.003Z,3.56
2019-01-19T11:28:00.882Z,3.68
2019-01-19T11:30:31.785Z,3.82
2019-01-19T11:33:01.606Z,3.91
2019-01-19T11:35:32.794Z,3.85
2019-01-19T11:38:04.195Z,3.90
2019-01-19T11:40:36.281Z,3.91
2019-01-19T11:43:09.017Z,4.01
2019-01-19T11:45:39.388Z,3.98
2019-01-19T11:48:09.129Z,4.05
2019-01-19T11:50:38.960Z,4.05
2019-01-19T11:53:08.806Z,4.05
2019-01-19T11:55:38.697Z,4.18
2019-01-19T11:58:08.512Z,3.99
2019-01-19T12:00:41.737Z,4.16
2019-01-19T12:03:13.343Z,4.25
2019-01-19T12:05:43.119Z,4.03
2019-01-19T12:08:19.510Z,4.11
2019-01-19T12:10:45.037Z,4.23
2019-01-19T12:13:14.867Z,4.27
2019-01-19T12:15:44.691Z,4.45
2019-01-19T12:18:14.645Z,4.47
2019-01-19T12:20:49.742Z,4.55
2019-01-19T12:23:21.417Z,4.40
2019-01-19T12:25:51.734Z,4.41
2019-01-19T12:28:21.835Z,4.37
2019-01-19T12:30:51.753Z,4.29
2019-01-19T12:33:24.729Z,4.24
2019-01-19T12:35:54.784Z,4.05
2019-01-19T12:38:26.996Z,4.17
2019-01-19T12:40:56.307Z,4.10
2019-01-19T12:43:26.399Z,4.34
2019-01-19T12:46:08.011Z,4.50
2019-01-19T12:48:38.274Z,4.42
2019-01-19T12:51:12.914Z,4.38
2019-01-19T12:53:45.291Z,4.46
2019-01-19T12:56:15.368Z,4.45
2019-01-19T12:58:45.275Z,4.68
2019-01-19T13:01:18.181Z,5.16
2019-01-19T13:03:48.155Z,5.09
2019-01-19T13:06:49.490Z,4.85
2019-01-19T13:09:31.487Z,4.61
2019-01-19T13:12:25.195Z,4.52
2019-01-19T13:15:31.290Z,4.04
2019-01-19T13:18:32.499Z,4.08
2019-01-19T13:24:14.657Z,6.47
2019-01-19T13:27:25.714Z,5.44
2019-01-19T13:30:36.759Z,5.10
2019-01-19T13:33:30.505Z,4.89
2019-01-19T13:37:01.470Z,4.64
2019-01-19T13:39:50.568Z,4.66
2019-01-19T13:42:46.079Z,4.37
2019-01-19T13:45:31.411Z,4.34
2019-01-19T13:48:37.530Z,4.24
2019-01-19T13:51:43.283Z,4.12
2019-01-19T13:55:03.669Z,4.17
2019-01-19T13:58:13.714Z,4.09
2019-01-19T14:01:16.235Z,3.88
2019-01-19T14:04:27.605Z,3.75
2019-01-19T14:07:18.324Z,3.78
2019-01-19T14:10:59.804Z,3.79
2019-01-19T14:13:44.491Z,3.78
2019-01-19T14:17:08.010Z,3.82
2019-01-19T14:20:16.179Z,3.78
2019-01-19T14:23:27.227Z,3.64
2019-01-19T14:26:43.423Z,3.70
2019-01-19T14:29:35.307Z,3.52
2019-01-19T14:32:48.751Z,3.50
2019-01-19T14:35:46.038Z,3.46
2019-01-19T14:38:56.733Z,3.45
2019-01-19T14:42:11.532Z,3.36
2019-01-19T14:45:01.044Z,3.41
2019-01-19T14:47:51.326Z,3.41
2019-01-19T14:50:46.684Z,3.34
2019-01-19T14:54:12.915Z,3.34
2019-01-19T14:57:19.471Z,3.28
2019-01-19T15:00:31.612Z,3.20
2019-01-19T15:03:20.767Z,3.11
2019-01-19T15:06:47.310Z,2.95
2019-01-19T15:09:54.575Z,2.97
2019-01-19T15:13:20.832Z,2.89
2019-01-19T15:16:24.436Z,2.91
2019-01-19T15:19:44.447Z,2.80
2019-01-19T15:22:37.008Z,2.75
2019-01-19T15:25:38.861Z,2.59
2019-01-19T15:28:31.321Z,2.51
2019-01-19T15:31:17.879Z,2.47
2019-01-19T15:34:25.357Z,2.39
2019-01-19T15:37:41.230Z,2.32
2019-01-19T15:40:58.508Z,2.34
2019-01-19T15:44:19.143Z,2.18
2019-01-19T15:47:26.183Z,2.12
2019-01-19T15:50:39.616Z,2.00
2019-01-19T15:53:29.727Z,2.08
2019-01-19T15:56:29.396Z,1.98
2019-01-19T15:59:30.614Z,1.83
2019-01-19T16:02:31.615Z,1.80
2019-01-19T16:05:39.871Z,1.78
2019-01-19T16:08:41.985Z,1.73
2019-01-19T16:11:46.899Z,1.70
2019-01-19T16:15:00.852Z,1.69
2019-01-19T16:17:56.566Z,1.61
2019-01-19T16:21:06.993Z,1.55
2019-01-19T16:24:29.319Z,1.47
2019-01-19T16:27:46.375Z,1.37
2019-01-19T16:30:54.639Z,1.34
2019-01-19T16:33:48.346Z,1.21
2019-01-19T16:37:14.608Z,0.87
2019-01-19T16:40:12.767Z,0.99
2019-01-19T16:43:24.165Z,0.91
2019-01-19T16:46:15.369Z,0.93
2019-01-19T16:48:54.916Z,1.00
2019-01-19T16:52:05.875Z,1.03
2019-01-19T16:55:15.645Z,1.06
2019-01-19T16:58:08.186Z,1.08
2019-01-19T17:01:28.077Z,1.01
2019-01-19T17:04:38.529Z,1.00
2019-01-19T17:07:48.993Z,0.98
2019-01-19T17:11:09.176Z,0.94
2019-01-19T17:14:27.688Z,0.86
2019-01-19T17:17:17.308Z,0.86
2019-01-19T17:20:19.207Z,0.91
2019-01-19T17:23:26.459Z,0.90
2019-01-19T17:26:46.808Z,0.89
2019-01-19T17:29:47.264Z,0.90
2019-01-19T17:32:30.269Z,0.84
2019-01-19T17:35:43.385Z,0.92
2019-01-19T17:38:26.545Z,0.76
2019-01-19T17:41:43.534Z,0.63
2019-01-19T17:45:06.659Z,0.37
2019-01-19T17:48:13.206Z,0.46
2019-01-19T17:51:12.927Z,0.40
2019-01-19T17:54:06.678Z,0.50
2019-01-19T17:56:47.256Z,0.43
2019-01-19T17:59:46.785Z,0.55
2019-01-19T18:02:47.565Z,0.60
2019-01-19T18:06:00.120Z,0.60
2019-01-19T18:09:15.399Z,0.56
2019-01-19T18:12:23.902Z,0.68
2019-01-19T18:15:28.839Z,0.57
2019-01-19T18:18:21.562Z,0.50
2019-01-19T18:21:48.004Z,0.57
2019-01-19T18:24:51.080Z,0.60
2019-01-19T18:27:59.366Z,0.39
2019-01-19T18:31:06.688Z,0.36
2019-01-19T18:34:05.568Z,0.36
2019-01-19T18:36:41.870Z,0.33
2019-01-19T18:39:22.058Z,0.32
2019-01-19T18:42:12.949Z,0.41
2019-01-19T18:45:16.915Z,0.49
2019-01-19T18:48:22.712Z,0.38
2019-01-19T18:51:37.977Z,0.25
2019-01-19T18:54:58.386Z,0.35
2019-01-19T18:58:06.643Z,0.44
2019-01-19T19:01:25.351Z,0.40
2019-01-19T19:04:40.967Z,0.41
2019-01-19T19:07:54.175Z,0.40
2019-01-19T19:11:11.830Z,0.28
2019-01-19T19:14:37.332Z,0.35
2019-01-19T19:17:54.456Z,0.34
2019-01-19T19:20:53.575Z,0.29
2019-01-19T19:24:10.781Z,0.33
2019-01-19T19:27:16.206Z,0.31
2019-01-19T19:30:05.520Z,0.20
2019-01-19T19:33:16.559Z,0.10
2019-01-19T19:36:35.761Z,0.00
2019-01-19T19:39:43.611Z,0.09
2019-01-19T19:42:50.633Z,0.09
2019-01-19T19:46:07.521Z,0.02
2019-01-19T19:49:03.592Z,0.01
2019-01-19T19:52:01.585Z,0.01
2019-01-19T19:54:32.535Z,-0.06
2019-01-19T19:57:02.965Z,-0.03
2019-01-19T19:59:33.038Z,-0.02
2019-01-19T20:02:03.087Z,-0.09
2019-01-19T20:04:33.118Z,-0.18
2019-01-19T20:07:03.375Z,-0.18
2019-01-19T20:09:33.455Z,-0.18
2019-01-19T20:12:07.710Z,-0.24
2019-01-19T20:14:38.283Z,-0.17
2019-01-19T20:17:08.302Z,-0.26
2019-01-19T20:19:38.261Z,-0.22
2019-01-19T20:22:09.870Z,-0.25
2019-01-19T20:24:39.903Z,-0.25
2019-01-19T20:27:09.947Z,-0.17
2019-01-19T20:29:39.924Z,-0.22
2019-01-19T20:32:09.922Z,-0.27
2019-01-19T20:34:41.604Z,-0.39
2019-01-19T20:37:12.990Z,-0.30
2019-01-19T20:39:43.166Z,-0.33
2019-01-19T20:42:13.153Z,-0.37
2019-01-19T20:44:44.954Z,-0.31
2019-01-19T20:47:14.935Z,-0.60
2019-01-19T20:49:45.147Z,-0.40
2019-01-19T20:52:16.830Z,-0.35
2019-01-19T20:54:48.914Z,-0.32
2019-01-19T20:57:18.928Z,-0.27
2019-01-19T20:59:48.980Z,-0.27
2019-01-19T21:02:19.252Z,-0.33
2019-01-19T21:04:51.866Z,-0.39
2019-01-19T21:07:25.186Z,-0.40
2019-01-19T21:09:55.038Z,-0.49
2019-01-19T21:12:25.010Z,-0.57
2019-01-19T21:14:55.213Z,-0.62
2019-01-19T21:17:26.174Z,-0.53
2019-01-19T21:19:56.124Z,-0.43
2019-01-19T21:22:25.991Z,-0.53
2019-01-19T21:25:01.662Z,-0.47
2019-01-19T21:27:31.747Z,-0.53
2019-01-19T21:30:01.551Z,-0.48
2019-01-19T21:32:31.961Z,-0.48
2019-01-19T21:35:01.933Z,-0.62
2019-01-19T21:37:31.942Z,-0.60
2019-01-19T21:40:01.940Z,-0.59
2019-01-19T21:42:31.958Z,-0.61
2019-01-19T21:45:01.830Z,-0.58
2019-01-19T21:47:31.930Z,-0.57
2019-01-19T21:50:01.915Z,-0.60
2019-01-19T21:52:31.824Z,-0.61
2019-01-19T21:55:03.160Z,-0.61
2019-01-19T21:57:33.003Z,-0.61
2019-01-19T22:00:03.793Z,-0.58
2019-01-19T22:02:34.497Z,-0.62
2019-01-19T22:05:04.510Z,-0.59
2019-01-19T22:07:35.079Z,-0.57
2019-01-19T22:10:06.115Z,-0.61
2019-01-19T22:12:36.063Z,-0.62
2019-01-19T22:15:08.853Z,-0.66
2019-01-19T22:17:39.783Z,-0.62
2019-01-19T22:20:11.641Z,-0.58
2019-01-19T22:22:41.551Z,-0.62
2019-01-19T22:25:14.245Z,-0.66
2019-01-19T22:27:48.100Z,-0.69
2019-01-19T22:30:20.304Z,-0.66
2019-01-19T22:32:52.114Z,-0.67
2019-01-19T22:35:23.745Z,-0.63
2019-01-19T22:37:53.735Z,-0.60
2019-01-19T22:40:26.767Z,-0.62
2019-01-19T22:42:59.287Z,-0.67
2019-01-19T22:45:29.629Z,-0.78
2019-01-19T22:47:59.402Z,-0.80
2019-01-19T22:50:29.254Z,-0.74
2019-01-19T22:52:59.195Z,-0.67
2019-01-19T22:55:32.337Z,-0.65
2019-01-19T22:58:04.119Z,-0.64
2019-01-19T23:01:35.425Z,-0.63
2019-01-19T23:04:05.867Z,-0.63
2019-01-19T23:06:35.798Z,-0.81
2019-01-19T23:09:11.831Z,-0.74
2019-01-19T23:11:47.637Z,-0.75
2019-01-19T23:14:17.443Z,-0.72
2019-01-19T23:16:47.387Z,-0.73
2019-01-19T23:19:17.236Z,-0.83
2019-01-19T23:21:47.121Z,-0.80
2019-01-19T23:24:21.288Z,-0.78
2019-01-19T23:26:51.950Z,-0.79
2019-01-19T23:29:21.865Z,-0.80
2019-01-19T23:31:51.696Z,-0.81
2019-01-19T23:34:21.576Z,-0.77
2019-01-19T23:36:51.475Z,-0.72
2019-01-19T23:39:21.318Z,-0.83
2019-01-19T23:41:51.154Z,-0.86
2019-01-19T23:44:20.996Z,-0.84
2019-01-19T23:46:50.955Z,-0.98
2019-01-19T23:49:20.903Z,-0.96
2019-01-19T23:51:50.861Z,-0.96
2019-01-19T23:54:20.818Z,-0.99
2019-01-19T23:56:50.768Z,-0.93
2019-01-19T23:59:20.730Z,-0.92
